sensor_id;sensor_type;location;lat;lon;timestamp;P1;durP1;ratioP1;P2;durP2;ratioP2
31596;SDS011;74162;50.912;6.918;2023-12-28T00:00:27;3.50;;;2.50;;
31596;SDS011;74162;50.912;6.918;2023-12-28T00:00:59;4.40;;;2.78;;
31596;SDS011;74162;50.912;6.918;2023-12-28T00:01:37;2.70;;;2.50;;
31596;SDS011;74162;50.912;6.918;2023-12-28T00:02:13;3.03;;;2.70;;
31596;SDS011;74162;50.912;6.918;2023-12-28T00:02:51;3.60;;;2.40;;
31596;SDS011;74162;50.912;6.918;2023-12-28T00:03:26;2.63;;;2.22;;
31596;SDS011;74162;50.912;6.918;2023-12-28T00:04:04;3.42;;;2.60;;
31596;SDS011;74162;50.912;6.918;2023-12-28T00:04:37;3.90;;;2.75;;
31596;SDS011;74162;50.912;6.918;2023-12-28T00:05:21;3.17;;;2.72;;
31596;SDS011;74162;50.912;6.918;2023-12-28T00:05:53;4.68;;;2.60;;
31596;SDS011;74162;50.912;6.918;2023-12-28T00:06:26;6.25;;;3.08;;
31596;SDS011;74162;50.912;6.918;2023-12-28T00:06:59;5.15;;;2.80;;
31596;SDS011;74162;50.912;6.918;2023-12-28T00:07:34;3.85;;;2.78;;
31596;SDS011;74162;50.912;6.918;2023-12-28T00:08:15;4.43;;;2.75;;
31596;SDS011;74162;50.912;6.918;2023-12-28T00:08:53;3.50;;;2.88;;
31596;SDS011;74162;50.912;6.918;2023-12-28T00:09:36;4.60;;;2.60;;
31596;SDS011;74162;50.912;6.918;2023-12-28T00:10:12;3.28;;;2.58;;
31596;SDS011;74162;50.912;6.918;2023-12-28T00:10:54;3.67;;;2.90;;
31596;SDS011;74162;50.912;6.918;2023-12-28T00:11:28;3.78;;;2.55;;
31596;SDS011;74162;50.912;6.918;2023-12-28T00:12:03;4.65;;;2.80;;
31596;SDS011;74162;50.912;6.918;2023-12-28T00:12:39;3.08;;;2.78;;
31596;SDS011;74162;50.912;6.918;2023-12-28T00:13:11;3.80;;;2.55;;
31596;SDS011;74162;50.912;6.918;2023-12-28T00:13:44;3.60;;;2.58;;
31596;SDS011;74162;50.912;6.918;2023-12-28T00:14:17;5.03;;;3.20;;
31596;SDS011;74162;50.912;6.918;2023-12-28T00:14:49;4.38;;;2.88;;
31596;SDS011;74162;50.912;6.918;2023-12-28T00:15:23;5.70;;;2.67;;
31596;SDS011;74162;50.912;6.918;2023-12-28T00:16:00;3.25;;;2.95;;
31596;SDS011;74162;50.912;6.918;2023-12-28T00:16:32;3.10;;;2.55;;
31596;SDS011;74162;50.912;6.918;2023-12-28T00:17:10;4.82;;;3.03;;
31596;SDS011;74162;50.912;6.918;2023-12-28T00:17:49;3.45;;;3.15;;
31596;SDS011;74162;50.912;6.918;2023-12-28T00:18:22;3.72;;;2.67;;
31596;SDS011;74162;50.912;6.918;2023-12-28T00:18:57;3.50;;;2.90;;
31596;SDS011;74162;50.912;6.918;2023-12-28T00:19:29;3.72;;;2.65;;
31596;SDS011;74162;50.912;6.918;2023-12-28T00:20:02;2.95;;;2.65;;
31596;SDS011;74162;50.912;6.918;2023-12-28T00:20:35;3.05;;;2.75;;
31596;SDS011;74162;50.912;6.918;2023-12-28T00:21:06;3.97;;;2.83;;
31596;SDS011;74162;50.912;6.918;2023-12-28T00:21:38;3.75;;;2.80;;
31596;SDS011;74162;50.912;6.918;2023-12-28T00:22:10;3.35;;;2.60;;
31596;SDS011;74162;50.912;6.918;2023-12-28T00:22:42;5.35;;;2.90;;
31596;SDS011;74162;50.912;6.918;2023-12-28T00:23:14;3.58;;;2.83;;
31596;SDS011;74162;50.912;6.918;2023-12-28T00:23:46;5.10;;;2.85;;
31596;SDS011;74162;50.912;6.918;2023-12-28T00:24:19;4.47;;;2.95;;
31596;SDS011;74162;50.912;6.918;2023-12-28T00:24:53;3.72;;;2.92;;
31596;SDS011;74162;50.912;6.918;2023-12-28T00:25:25;3.53;;;3.22;;
31596;SDS011;74162;50.912;6.918;2023-12-28T00:25:57;4.25;;;3.10;;
31596;SDS011;74162;50.912;6.918;2023-12-28T00:26:29;4.80;;;3.00;;
31596;SDS011;74162;50.912;6.918;2023-12-28T00:27:01;3.53;;;3.00;;
31596;SDS011;74162;50.912;6.918;2023-12-28T00:27:33;3.83;;;2.97;;
31596;SDS011;74162;50.912;6.918;2023-12-28T00:28:05;4.25;;;2.88;;
31596;SDS011;74162;50.912;6.918;2023-12-28T00:28:38;4.20;;;3.03;;
31596;SDS011;74162;50.912;6.918;2023-12-28T00:29:10;6.28;;;3.65;;
31596;SDS011;74162;50.912;6.918;2023-12-28T00:29:42;3.50;;;2.92;;
31596;SDS011;74162;50.912;6.918;2023-12-28T00:30:14;3.92;;;2.80;;
31596;SDS011;74162;50.912;6.918;2023-12-28T00:30:46;3.58;;;2.97;;
31596;SDS011;74162;50.912;6.918;2023-12-28T00:31:18;4.65;;;3.00;;
31596;SDS011;74162;50.912;6.918;2023-12-28T00:31:50;4.05;;;2.80;;
31596;SDS011;74162;50.912;6.918;2023-12-28T00:32:22;3.80;;;2.80;;
31596;SDS011;74162;50.912;6.918;2023-12-28T00:32:54;3.50;;;3.20;;
31596;SDS011;74162;50.912;6.918;2023-12-28T00:33:26;3.85;;;3.03;;
31596;SDS011;74162;50.912;6.918;2023-12-28T00:33:59;4.78;;;2.80;;
31596;SDS011;74162;50.912;6.918;2023-12-28T00:34:31;3.58;;;2.83;;
31596;SDS011;74162;50.912;6.918;2023-12-28T00:35:03;3.75;;;2.60;;
31596;SDS011;74162;50.912;6.918;2023-12-28T00:35:36;5.50;;;2.70;;
31596;SDS011;74162;50.912;6.918;2023-12-28T00:36:08;4.03;;;2.90;;
31596;SDS011;74162;50.912;6.918;2023-12-28T00:36:40;4.55;;;2.78;;
31596;SDS011;74162;50.912;6.918;2023-12-28T00:37:12;3.95;;;2.70;;
31596;SDS011;74162;50.912;6.918;2023-12-28T00:37:44;4.30;;;2.63;;
31596;SDS011;74162;50.912;6.918;2023-12-28T00:38:16;3.63;;;2.88;;
31596;SDS011;74162;50.912;6.918;2023-12-28T00:38:47;3.55;;;2.67;;
31596;SDS011;74162;50.912;6.918;2023-12-28T00:39:19;4.28;;;2.78;;
31596;SDS011;74162;50.912;6.918;2023-12-28T00:39:51;3.65;;;2.42;;
31596;SDS011;74162;50.912;6.918;2023-12-28T00:40:24;2.97;;;2.63;;
31596;SDS011;74162;50.912;6.918;2023-12-28T00:40:57;3.28;;;2.80;;
31596;SDS011;74162;50.912;6.918;2023-12-28T00:41:28;3.20;;;2.90;;
31596;SDS011;74162;50.912;6.918;2023-12-28T00:42:00;4.13;;;3.22;;
31596;SDS011;74162;50.912;6.918;2023-12-28T00:42:32;3.08;;;2.63;;
31596;SDS011;74162;50.912;6.918;2023-12-28T00:43:04;3.03;;;2.72;;
31596;SDS011;74162;50.912;6.918;2023-12-28T00:43:36;3.55;;;2.50;;
31596;SDS011;74162;50.912;6.918;2023-12-28T00:44:07;4.88;;;3.28;;
31596;SDS011;74162;50.912;6.918;2023-12-28T00:44:39;3.85;;;2.80;;
31596;SDS011;74162;50.912;6.918;2023-12-28T00:45:11;4.03;;;3.03;;
31596;SDS011;74162;50.912;6.918;2023-12-28T00:45:43;4.20;;;3.03;;
31596;SDS011;74162;50.912;6.918;2023-12-28T00:46:15;4.82;;;2.92;;
31596;SDS011;74162;50.912;6.918;2023-12-28T00:46:47;4.03;;;3.38;;
31596;SDS011;74162;50.912;6.918;2023-12-28T00:47:19;4.00;;;2.90;;
31596;SDS011;74162;50.912;6.918;2023-12-28T00:47:51;3.25;;;2.70;;
31596;SDS011;74162;50.912;6.918;2023-12-28T00:48:23;4.22;;;3.15;;
31596;SDS011;74162;50.912;6.918;2023-12-28T00:48:55;4.47;;;3.00;;
31596;SDS011;74162;50.912;6.918;2023-12-28T00:49:27;3.25;;;2.75;;
31596;SDS011;74162;50.912;6.918;2023-12-28T00:49:59;3.10;;;2.80;;
31596;SDS011;74162;50.912;6.918;2023-12-28T00:50:31;4.97;;;2.72;;
31596;SDS011;74162;50.912;6.918;2023-12-28T00:51:04;4.32;;;2.95;;
31596;SDS011;74162;50.912;6.918;2023-12-28T00:51:36;3.58;;;2.90;;
31596;SDS011;74162;50.912;6.918;2023-12-28T00:52:08;4.75;;;3.05;;
31596;SDS011;74162;50.912;6.918;2023-12-28T00:52:40;3.58;;;2.92;;
31596;SDS011;74162;50.912;6.918;2023-12-28T00:53:12;3.10;;;2.80;;
31596;SDS011;74162;50.912;6.918;2023-12-28T00:53:44;3.47;;;2.67;;
31596;SDS011;74162;50.912;6.918;2023-12-28T00:54:16;3.35;;;2.60;;
31596;SDS011;74162;50.912;6.918;2023-12-28T00:54:48;3.03;;;2.70;;
31596;SDS011;74162;50.912;6.918;2023-12-28T00:55:21;3.42;;;2.85;;
31596;SDS011;74162;50.912;6.918;2023-12-28T00:55:53;3.63;;;2.50;;
31596;SDS011;74162;50.912;6.918;2023-12-28T00:56:25;4.60;;;2.67;;
31596;SDS011;74162;50.912;6.918;2023-12-28T00:56:57;2.90;;;2.55;;
31596;SDS011;74162;50.912;6.918;2023-12-28T00:57:28;2.78;;;2.40;;
31596;SDS011;74162;50.912;6.918;2023-12-28T00:58:00;3.60;;;2.80;;
31596;SDS011;74162;50.912;6.918;2023-12-28T00:58:32;3.85;;;3.17;;
31596;SDS011;74162;50.912;6.918;2023-12-28T00:59:04;4.20;;;2.95;;
31596;SDS011;74162;50.912;6.918;2023-12-28T00:59:36;3.40;;;2.47;;
31596;SDS011;74162;50.912;6.918;2023-12-28T01:00:08;4.75;;;3.05;;
31596;SDS011;74162;50.912;6.918;2023-12-28T01:00:41;3.42;;;2.92;;
31596;SDS011;74162;50.912;6.918;2023-12-28T01:01:13;3.72;;;2.83;;
31596;SDS011;74162;50.912;6.918;2023-12-28T01:01:46;3.30;;;2.80;;
31596;SDS011;74162;50.912;6.918;2023-12-28T01:02:18;4.30;;;2.70;;
31596;SDS011;74162;50.912;6.918;2023-12-28T01:02:50;2.83;;;2.55;;
31596;SDS011;74162;50.912;6.918;2023-12-28T01:03:22;3.35;;;2.60;;
31596;SDS011;74162;50.912;6.918;2023-12-28T01:03:54;3.58;;;2.90;;
31596;SDS011;74162;50.912;6.918;2023-12-28T01:04:26;3.53;;;2.50;;
31596;SDS011;74162;50.912;6.918;2023-12-28T01:04:58;3.20;;;2.60;;
31596;SDS011;74162;50.912;6.918;2023-12-28T01:05:30;4.38;;;3.05;;
31596;SDS011;74162;50.912;6.918;2023-12-28T01:06:02;3.33;;;2.70;;
31596;SDS011;74162;50.912;6.918;2023-12-28T01:06:35;3.92;;;2.85;;
31596;SDS011;74162;50.912;6.918;2023-12-28T01:07:07;3.75;;;2.90;;
31596;SDS011;74162;50.912;6.918;2023-12-28T01:07:39;3.97;;;2.67;;
31596;SDS011;74162;50.912;6.918;2023-12-28T01:08:11;3.17;;;2.60;;
31596;SDS011;74162;50.912;6.918;2023-12-28T01:08:43;2.90;;;2.53;;
31596;SDS011;74162;50.912;6.918;2023-12-28T01:09:15;4.22;;;2.92;;
31596;SDS011;74162;50.912;6.918;2023-12-28T01:09:47;3.40;;;2.67;;
31596;SDS011;74162;50.912;6.918;2023-12-28T01:10:19;3.42;;;2.45;;
31596;SDS011;74162;50.912;6.918;2023-12-28T01:10:53;3.65;;;2.47;;
31596;SDS011;74162;50.912;6.918;2023-12-28T01:11:25;3.45;;;2.70;;
31596;SDS011;74162;50.912;6.918;2023-12-28T01:11:57;4.22;;;2.72;;
31596;SDS011;74162;50.912;6.918;2023-12-28T01:12:28;3.50;;;2.97;;
31596;SDS011;74162;50.912;6.918;2023-12-28T01:13:00;3.97;;;2.83;;
31596;SDS011;74162;50.912;6.918;2023-12-28T01:13:32;4.30;;;3.00;;
31596;SDS011;74162;50.912;6.918;2023-12-28T01:14:04;3.25;;;2.55;;
31596;SDS011;74162;50.912;6.918;2023-12-28T01:14:36;3.85;;;2.53;;
31596;SDS011;74162;50.912;6.918;2023-12-28T01:15:08;3.30;;;2.58;;
31596;SDS011;74162;50.912;6.918;2023-12-28T01:15:40;2.83;;;2.42;;
31596;SDS011;74162;50.912;6.918;2023-12-28T01:16:12;4.70;;;2.73;;
31596;SDS011;74162;50.912;6.918;2023-12-28T01:16:44;2.77;;;2.30;;
31596;SDS011;74162;50.912;6.918;2023-12-28T01:17:16;3.25;;;2.67;;
31596;SDS011;74162;50.912;6.918;2023-12-28T01:17:48;6.20;;;2.67;;
31596;SDS011;74162;50.912;6.918;2023-12-28T01:18:20;2.85;;;2.40;;
31596;SDS011;74162;50.912;6.918;2023-12-28T01:18:52;3.05;;;2.40;;
31596;SDS011;74162;50.912;6.918;2023-12-28T01:19:24;3.25;;;2.60;;
31596;SDS011;74162;50.912;6.918;2023-12-28T01:19:56;2.70;;;2.40;;
31596;SDS011;74162;50.912;6.918;2023-12-28T01:20:28;2.50;;;2.30;;
31596;SDS011;74162;50.912;6.918;2023-12-28T01:21:00;2.60;;;2.40;;
31596;SDS011;74162;50.912;6.918;2023-12-28T01:21:32;2.28;;;2.08;;
31596;SDS011;74162;50.912;6.918;2023-12-28T01:22:04;2.75;;;2.22;;
31596;SDS011;74162;50.912;6.918;2023-12-28T01:22:36;2.63;;;2.42;;
31596;SDS011;74162;50.912;6.918;2023-12-28T01:23:08;2.50;;;2.20;;
31596;SDS011;74162;50.912;6.918;2023-12-28T01:23:40;2.65;;;2.35;;
31596;SDS011;74162;50.912;6.918;2023-12-28T01:24:11;3.03;;;2.30;;
31596;SDS011;74162;50.912;6.918;2023-12-28T01:24:45;3.72;;;2.20;;
31596;SDS011;74162;50.912;6.918;2023-12-28T01:25:17;2.40;;;2.20;;
31596;SDS011;74162;50.912;6.918;2023-12-28T01:25:49;2.28;;;2.08;;
31596;SDS011;74162;50.912;6.918;2023-12-28T01:26:22;2.85;;;2.30;;
31596;SDS011;74162;50.912;6.918;2023-12-28T01:26:54;2.50;;;2.22;;
31596;SDS011;74162;50.912;6.918;2023-12-28T01:27:26;2.80;;;2.22;;
31596;SDS011;74162;50.912;6.918;2023-12-28T01:27:58;2.35;;;2.10;;
31596;SDS011;74162;50.912;6.918;2023-12-28T01:28:30;2.58;;;2.38;;
31596;SDS011;74162;50.912;6.918;2023-12-28T01:29:02;2.55;;;2.20;;
31596;SDS011;74162;50.912;6.918;2023-12-28T01:29:34;2.30;;;2.10;;
31596;SDS011;74162;50.912;6.918;2023-12-28T01:30:06;2.70;;;2.22;;
31596;SDS011;74162;50.912;6.918;2023-12-28T01:30:39;2.30;;;2.10;;
31596;SDS011;74162;50.912;6.918;2023-12-28T01:31:11;3.92;;;2.38;;
31596;SDS011;74162;50.912;6.918;2023-12-28T01:31:43;2.78;;;1.90;;
31596;SDS011;74162;50.912;6.918;2023-12-28T01:32:15;2.13;;;1.92;;
31596;SDS011;74162;50.912;6.918;2023-12-28T01:32:47;2.92;;;2.17;;
31596;SDS011;74162;50.912;6.918;2023-12-28T01:33:19;2.53;;;2.30;;
31596;SDS011;74162;50.912;6.918;2023-12-28T01:33:51;2.55;;;2.35;;
31596;SDS011;74162;50.912;6.918;2023-12-28T01:34:23;2.83;;;2.28;;
31596;SDS011;74162;50.912;6.918;2023-12-28T01:34:55;2.55;;;1.85;;
31596;SDS011;74162;50.912;6.918;2023-12-28T01:35:27;2.55;;;2.20;;
31596;SDS011;74162;50.912;6.918;2023-12-28T01:35:59;3.55;;;2.50;;
31596;SDS011;74162;50.912;6.918;2023-12-28T01:36:31;2.20;;;2.00;;
31596;SDS011;74162;50.912;6.918;2023-12-28T01:37:03;2.15;;;1.95;;
31596;SDS011;74162;50.912;6.918;2023-12-28T01:37:34;2.08;;;1.90;;
31596;SDS011;74162;50.912;6.918;2023-12-28T01:38:06;2.00;;;1.80;;
31596;SDS011;74162;50.912;6.918;2023-12-28T01:38:38;2.10;;;1.90;;
31596;SDS011;74162;50.912;6.918;2023-12-28T01:39:10;1.70;;;1.60;;
31596;SDS011;74162;50.912;6.918;2023-12-28T01:39:42;2.13;;;1.92;;
31596;SDS011;74162;50.912;6.918;2023-12-28T01:40:14;2.25;;;1.45;;
31596;SDS011;74162;50.912;6.918;2023-12-28T01:40:46;2.08;;;1.85;;
31596;SDS011;74162;50.912;6.918;2023-12-28T01:41:18;1.98;;;1.80;;
31596;SDS011;74162;50.912;6.918;2023-12-28T01:41:51;2.50;;;1.85;;
31596;SDS011;74162;50.912;6.918;2023-12-28T01:42:23;2.13;;;1.90;;
31596;SDS011;74162;50.912;6.918;2023-12-28T01:42:55;2.47;;;2.00;;
31596;SDS011;74162;50.912;6.918;2023-12-28T01:43:27;2.17;;;1.70;;
31596;SDS011;74162;50.912;6.918;2023-12-28T01:43:59;1.90;;;1.60;;
31596;SDS011;74162;50.912;6.918;2023-12-28T01:44:31;1.98;;;1.77;;
31596;SDS011;74162;50.912;6.918;2023-12-28T01:45:03;1.95;;;1.65;;
31596;SDS011;74162;50.912;6.918;2023-12-28T01:45:36;1.83;;;1.73;;
31596;SDS011;74162;50.912;6.918;2023-12-28T01:46:08;2.53;;;1.88;;
31596;SDS011;74162;50.912;6.918;2023-12-28T01:46:45;1.90;;;1.67;;
31596;SDS011;74162;50.912;6.918;2023-12-28T01:47:17;2.00;;;1.80;;
31596;SDS011;74162;50.912;6.918;2023-12-28T01:47:50;3.30;;;2.30;;
31596;SDS011;74162;50.912;6.918;2023-12-28T01:48:25;2.00;;;1.90;;
31596;SDS011;74162;50.912;6.918;2023-12-28T01:48:57;1.55;;;1.45;;
31596;SDS011;74162;50.912;6.918;2023-12-28T01:49:29;1.83;;;1.70;;
31596;SDS011;74162;50.912;6.918;2023-12-28T01:50:02;1.70;;;1.60;;
31596;SDS011;74162;50.912;6.918;2023-12-28T01:50:36;1.50;;;1.40;;
31596;SDS011;74162;50.912;6.918;2023-12-28T01:51:08;1.83;;;1.70;;
31596;SDS011;74162;50.912;6.918;2023-12-28T01:51:41;1.63;;;1.52;;
31596;SDS011;74162;50.912;6.918;2023-12-28T01:52:14;1.38;;;1.27;;
31596;SDS011;74162;50.912;6.918;2023-12-28T01:52:46;2.53;;;1.70;;
31596;SDS011;74162;50.912;6.918;2023-12-28T01:53:20;1.60;;;1.50;;
31596;SDS011;74162;50.912;6.918;2023-12-28T01:53:51;1.63;;;1.40;;
31596;SDS011;74162;50.912;6.918;2023-12-28T01:54:24;1.70;;;1.60;;
31596;SDS011;74162;50.912;6.918;2023-12-28T01:54:55;1.98;;;1.70;;
31596;SDS011;74162;50.912;6.918;2023-12-28T01:55:28;1.73;;;1.63;;
31596;SDS011;74162;50.912;6.918;2023-12-28T01:56:02;1.90;;;1.40;;
31596;SDS011;74162;50.912;6.918;2023-12-28T01:56:34;1.90;;;1.60;;
31596;SDS011;74162;50.912;6.918;2023-12-28T01:57:08;1.90;;;1.50;;
31596;SDS011;74162;50.912;6.918;2023-12-28T01:57:41;1.60;;;1.50;;
31596;SDS011;74162;50.912;6.918;2023-12-28T01:58:13;1.50;;;1.40;;
31596;SDS011;74162;50.912;6.918;2023-12-28T01:58:46;1.48;;;1.38;;
31596;SDS011;74162;50.912;6.918;2023-12-28T01:59:20;1.60;;;1.50;;
31596;SDS011;74162;50.912;6.918;2023-12-28T01:59:52;1.55;;;1.45;;
31596;SDS011;74162;50.912;6.918;2023-12-28T02:00:24;1.60;;;1.40;;
31596;SDS011;74162;50.912;6.918;2023-12-28T02:00:57;2.13;;;1.38;;
31596;SDS011;74162;50.912;6.918;2023-12-28T02:01:29;1.83;;;1.50;;
31596;SDS011;74162;50.912;6.918;2023-12-28T02:02:01;1.48;;;1.38;;
31596;SDS011;74162;50.912;6.918;2023-12-28T02:02:33;2.05;;;1.65;;
31596;SDS011;74162;50.912;6.918;2023-12-28T02:03:06;1.60;;;1.50;;
31596;SDS011;74162;50.912;6.918;2023-12-28T02:03:38;1.48;;;1.33;;
31596;SDS011;74162;50.912;6.918;2023-12-28T02:04:10;1.70;;;1.60;;
31596;SDS011;74162;50.912;6.918;2023-12-28T02:04:43;1.50;;;1.40;;
31596;SDS011;74162;50.912;6.918;2023-12-28T02:05:15;2.50;;;1.45;;
31596;SDS011;74162;50.912;6.918;2023-12-28T02:05:47;1.42;;;1.33;;
31596;SDS011;74162;50.912;6.918;2023-12-28T02:06:19;1.35;;;1.25;;
31596;SDS011;74162;50.912;6.918;2023-12-28T02:06:55;1.40;;;1.30;;
31596;SDS011;74162;50.912;6.918;2023-12-28T02:07:28;1.23;;;1.13;;
31596;SDS011;74162;50.912;6.918;2023-12-28T02:08:01;1.40;;;1.30;;
31596;SDS011;74162;50.912;6.918;2023-12-28T02:08:33;1.85;;;1.40;;
31596;SDS011;74162;50.912;6.918;2023-12-28T02:09:05;1.50;;;1.40;;
31596;SDS011;74162;50.912;6.918;2023-12-28T02:09:37;1.52;;;1.42;;
31596;SDS011;74162;50.912;6.918;2023-12-28T02:10:09;1.30;;;1.20;;
31596;SDS011;74162;50.912;6.918;2023-12-28T02:10:41;1.43;;;1.33;;
31596;SDS011;74162;50.912;6.918;2023-12-28T02:11:13;2.15;;;1.30;;
31596;SDS011;74162;50.912;6.918;2023-12-28T02:11:45;1.38;;;1.27;;
31596;SDS011;74162;50.912;6.918;2023-12-28T02:12:18;1.33;;;1.10;;
31596;SDS011;74162;50.912;6.918;2023-12-28T02:12:50;1.30;;;1.20;;
31596;SDS011;74162;50.912;6.918;2023-12-28T02:13:22;2.50;;;1.30;;
31596;SDS011;74162;50.912;6.918;2023-12-28T02:13:55;1.50;;;1.30;;
31596;SDS011;74162;50.912;6.918;2023-12-28T02:14:27;1.52;;;1.30;;
31596;SDS011;74162;50.912;6.918;2023-12-28T02:14:58;1.45;;;1.30;;
31596;SDS011;74162;50.912;6.918;2023-12-28T02:15:31;1.40;;;1.30;;
31596;SDS011;74162;50.912;6.918;2023-12-28T02:16:04;2.03;;;1.50;;
31596;SDS011;74162;50.912;6.918;2023-12-28T02:16:44;1.48;;;1.38;;
31596;SDS011;74162;50.912;6.918;2023-12-28T02:17:19;1.30;;;1.15;;
31596;SDS011;74162;50.912;6.918;2023-12-28T02:17:55;1.38;;;1.27;;
31596;SDS011;74162;50.912;6.918;2023-12-28T02:18:34;1.20;;;1.10;;
31596;SDS011;74162;50.912;6.918;2023-12-28T02:19:12;1.50;;;1.40;;
31596;SDS011;74162;50.912;6.918;2023-12-28T02:19:54;1.38;;;1.27;;
31596;SDS011;74162;50.912;6.918;2023-12-28T02:20:27;1.35;;;1.25;;
31596;SDS011;74162;50.912;6.918;2023-12-28T02:21:01;1.40;;;1.30;;
31596;SDS011;74162;50.912;6.918;2023-12-28T02:21:34;1.40;;;1.30;;
31596;SDS011;74162;50.912;6.918;2023-12-28T02:22:06;1.55;;;1.20;;
31596;SDS011;74162;50.912;6.918;2023-12-28T02:22:39;1.40;;;1.30;;
31596;SDS011;74162;50.912;6.918;2023-12-28T02:23:12;1.50;;;1.40;;
31596;SDS011;74162;50.912;6.918;2023-12-28T02:23:46;1.38;;;1.27;;
31596;SDS011;74162;50.912;6.918;2023-12-28T02:24:18;1.50;;;1.30;;
31596;SDS011;74162;50.912;6.918;2023-12-28T02:24:56;1.30;;;1.20;;
31596;SDS011;74162;50.912;6.918;2023-12-28T02:25:34;1.10;;;1.00;;
31596;SDS011;74162;50.912;6.918;2023-12-28T02:26:06;1.48;;;1.38;;
31596;SDS011;74162;50.912;6.918;2023-12-28T02:26:38;1.40;;;1.10;;
31596;SDS011;74162;50.912;6.918;2023-12-28T02:27:10;1.83;;;1.40;;
31596;SDS011;74162;50.912;6.918;2023-12-28T02:27:42;1.30;;;1.20;;
31596;SDS011;74162;50.912;6.918;2023-12-28T02:28:15;1.48;;;1.30;;
31596;SDS011;74162;50.912;6.918;2023-12-28T02:28:47;1.38;;;1.17;;
31596;SDS011;74162;50.912;6.918;2023-12-28T02:29:20;1.60;;;1.20;;
31596;SDS011;74162;50.912;6.918;2023-12-28T02:29:52;1.40;;;1.30;;
31596;SDS011;74162;50.912;6.918;2023-12-28T02:30:26;1.90;;;1.23;;
31596;SDS011;74162;50.912;6.918;2023-12-28T02:30:58;1.35;;;1.25;;
31596;SDS011;74162;50.912;6.918;2023-12-28T02:31:35;1.42;;;1.33;;
31596;SDS011;74162;50.912;6.918;2023-12-28T02:32:16;1.50;;;1.30;;
31596;SDS011;74162;50.912;6.918;2023-12-28T02:32:54;1.30;;;1.20;;
31596;SDS011;74162;50.912;6.918;2023-12-28T02:33:42;0.95;;;0.95;;
31596;SDS011;74162;50.912;6.918;2023-12-28T02:34:23;1.40;;;1.17;;
31596;SDS011;74162;50.912;6.918;2023-12-28T02:35:01;1.20;;;1.10;;
31596;SDS011;74162;50.912;6.918;2023-12-28T02:35:42;1.70;;;1.10;;
31596;SDS011;74162;50.912;6.918;2023-12-28T02:36:18;1.40;;;1.13;;
31596;SDS011;74162;50.912;6.918;2023-12-28T02:36:55;1.10;;;1.10;;
31596;SDS011;74162;50.912;6.918;2023-12-28T02:37:28;1.20;;;1.10;;
31596;SDS011;74162;50.912;6.918;2023-12-28T02:38:05;1.52;;;1.42;;
31596;SDS011;74162;50.912;6.918;2023-12-28T02:38:42;1.20;;;1.10;;
31596;SDS011;74162;50.912;6.918;2023-12-28T02:39:15;1.48;;;1.20;;
31596;SDS011;74162;50.912;6.918;2023-12-28T02:39:49;1.20;;;1.10;;
31596;SDS011;74162;50.912;6.918;2023-12-28T02:40:26;1.17;;;1.08;;
31596;SDS011;74162;50.912;6.918;2023-12-28T02:40:58;1.58;;;1.30;;
31596;SDS011;74162;50.912;6.918;2023-12-28T02:41:31;1.30;;;1.20;;
31596;SDS011;74162;50.912;6.918;2023-12-28T02:42:04;1.33;;;1.10;;
31596;SDS011;74162;50.912;6.918;2023-12-28T02:42:36;1.60;;;1.10;;
31596;SDS011;74162;50.912;6.918;2023-12-28T02:43:09;1.70;;;1.50;;
31596;SDS011;74162;50.912;6.918;2023-12-28T02:43:41;1.30;;;1.20;;
31596;SDS011;74162;50.912;6.918;2023-12-28T02:44:13;1.30;;;1.20;;
31596;SDS011;74162;50.912;6.918;2023-12-28T02:44:45;1.15;;;1.10;;
31596;SDS011;74162;50.912;6.918;2023-12-28T02:45:17;1.23;;;1.13;;
31596;SDS011;74162;50.912;6.918;2023-12-28T02:45:50;1.30;;;1.02;;
31596;SDS011;74162;50.912;6.918;2023-12-28T02:46:21;1.27;;;1.17;;
31596;SDS011;74162;50.912;6.918;2023-12-28T02:46:53;1.35;;;1.25;;
31596;SDS011;74162;50.912;6.918;2023-12-28T02:47:25;1.75;;;1.15;;
31596;SDS011;74162;50.912;6.918;2023-12-28T02:47:57;1.50;;;1.40;;
31596;SDS011;74162;50.912;6.918;2023-12-28T02:48:29;1.45;;;1.35;;
31596;SDS011;74162;50.912;6.918;2023-12-28T02:49:02;1.15;;;1.00;;
31596;SDS011;74162;50.912;6.918;2023-12-28T02:49:34;1.50;;;1.20;;
31596;SDS011;74162;50.912;6.918;2023-12-28T02:50:06;1.33;;;1.20;;
31596;SDS011;74162;50.912;6.918;2023-12-28T02:50:39;1.40;;;1.23;;
31596;SDS011;74162;50.912;6.918;2023-12-28T02:51:11;1.40;;;1.30;;
31596;SDS011;74162;50.912;6.918;2023-12-28T02:51:43;1.52;;;1.30;;
31596;SDS011;74162;50.912;6.918;2023-12-28T02:52:14;2.05;;;1.33;;
31596;SDS011;74162;50.912;6.918;2023-12-28T02:52:46;1.40;;;1.30;;
31596;SDS011;74162;50.912;6.918;2023-12-28T02:53:18;1.45;;;1.35;;
31596;SDS011;74162;50.912;6.918;2023-12-28T02:53:50;1.40;;;1.30;;
31596;SDS011;74162;50.912;6.918;2023-12-28T02:54:22;1.25;;;1.15;;
31596;SDS011;74162;50.912;6.918;2023-12-28T02:54:54;1.65;;;1.40;;
31596;SDS011;74162;50.912;6.918;2023-12-28T02:55:27;1.75;;;1.52;;
31596;SDS011;74162;50.912;6.918;2023-12-28T02:56:02;1.52;;;1.10;;
31596;SDS011;74162;50.912;6.918;2023-12-28T02:56:35;1.55;;;1.40;;
31596;SDS011;74162;50.912;6.918;2023-12-28T02:57:06;1.40;;;1.30;;
31596;SDS011;74162;50.912;6.918;2023-12-28T02:57:39;1.77;;;1.30;;
31596;SDS011;74162;50.912;6.918;2023-12-28T02:58:11;1.60;;;1.50;;
31596;SDS011;74162;50.912;6.918;2023-12-28T02:58:43;1.40;;;1.30;;
31596;SDS011;74162;50.912;6.918;2023-12-28T02:59:15;2.00;;;1.50;;
31596;SDS011;74162;50.912;6.918;2023-12-28T02:59:47;1.90;;;1.80;;
31596;SDS011;74162;50.912;6.918;2023-12-28T03:00:19;1.60;;;1.50;;
31596;SDS011;74162;50.912;6.918;2023-12-28T03:00:50;1.67;;;1.50;;
31596;SDS011;74162;50.912;6.918;2023-12-28T03:01:22;1.85;;;1.70;;
31596;SDS011;74162;50.912;6.918;2023-12-28T03:01:54;2.78;;;1.50;;
31596;SDS011;74162;50.912;6.918;2023-12-28T03:02:26;1.40;;;1.30;;
31596;SDS011;74162;50.912;6.918;2023-12-28T03:02:58;1.40;;;1.30;;
31596;SDS011;74162;50.912;6.918;2023-12-28T03:03:30;1.60;;;1.50;;
31596;SDS011;74162;50.912;6.918;2023-12-28T03:04:02;1.75;;;1.65;;
31596;SDS011;74162;50.912;6.918;2023-12-28T03:04:34;1.67;;;1.40;;
31596;SDS011;74162;50.912;6.918;2023-12-28T03:05:06;2.30;;;1.70;;
31596;SDS011;74162;50.912;6.918;2023-12-28T03:05:39;1.50;;;1.40;;
31596;SDS011;74162;50.912;6.918;2023-12-28T03:06:11;3.00;;;1.52;;
31596;SDS011;74162;50.912;6.918;2023-12-28T03:06:43;2.60;;;1.80;;
31596;SDS011;74162;50.912;6.918;2023-12-28T03:07:18;2.08;;;1.50;;
31596;SDS011;74162;50.912;6.918;2023-12-28T03:07:49;1.63;;;1.52;;
31596;SDS011;74162;50.912;6.918;2023-12-28T03:08:21;2.03;;;1.50;;
31596;SDS011;74162;50.912;6.918;2023-12-28T03:08:53;2.70;;;1.65;;
31596;SDS011;74162;50.912;6.918;2023-12-28T03:09:25;1.60;;;1.50;;
31596;SDS011;74162;50.912;6.918;2023-12-28T03:09:57;1.80;;;1.70;;
31596;SDS011;74162;50.912;6.918;2023-12-28T03:10:30;1.90;;;1.70;;
31596;SDS011;74162;50.912;6.918;2023-12-28T03:11:02;1.95;;;1.65;;
31596;SDS011;74162;50.912;6.918;2023-12-28T03:11:34;2.13;;;1.67;;
31596;SDS011;74162;50.912;6.918;2023-12-28T03:12:06;1.77;;;1.67;;
31596;SDS011;74162;50.912;6.918;2023-12-28T03:12:38;1.60;;;1.50;;
31596;SDS011;74162;50.912;6.918;2023-12-28T03:13:10;1.70;;;1.60;;
31596;SDS011;74162;50.912;6.918;2023-12-28T03:13:42;1.75;;;1.65;;
31596;SDS011;74162;50.912;6.918;2023-12-28T03:14:14;1.80;;;1.70;;
31596;SDS011;74162;50.912;6.918;2023-12-28T03:14:46;1.60;;;1.50;;
31596;SDS011;74162;50.912;6.918;2023-12-28T03:15:17;1.90;;;1.80;;
31596;SDS011;74162;50.912;6.918;2023-12-28T03:15:49;1.70;;;1.55;;
31596;SDS011;74162;50.912;6.918;2023-12-28T03:16:21;1.95;;;1.70;;
31596;SDS011;74162;50.912;6.918;2023-12-28T03:16:53;1.98;;;1.83;;
31596;SDS011;74162;50.912;6.918;2023-12-28T03:17:25;2.13;;;1.92;;
31596;SDS011;74162;50.912;6.918;2023-12-28T03:17:57;1.98;;;1.88;;
31596;SDS011;74162;50.912;6.918;2023-12-28T03:18:29;2.30;;;1.90;;